METAR Data
IDs: Format: Raw Decoded Include TAF

Data at: 1144 UTC 22 Jan 2022

Region: TOP
KATL 221108Z 33006KT 8SM BKN011 BKN016 OVC025 01/M02 A3031 RMK AO2 T00061022

KBOS 221054Z 35013KT 9SM -SN OVC036 M09/M14 A3044 RMK AO2 SLP308 P0000 T10941139 $

KBWI 221054Z 35005KT 10SM FEW035 FEW180 FEW250 M09/M17 A3042 RMK AO2 SLP302 T10891167

KCLE 221051Z 17006KT 10SM CLR M18/M21 A3034 RMK AO2 SLP310 T11781206

KCLT 221052Z 36006KT 10SM BKN044 M06/M09 A3035 RMK AO2 SLP284 T10611089

KCVG 221052Z 18003KT 8SM CLR M12/M14 A3039 RMK AO2 SLP303 T11221144

KDCA 221052Z 34010KT 10SM FEW035 FEW150 M08/M16 A3045 RMK AO2 SLP309 T10781156 $

KDEN 221053Z 20008KT 10SM FEW050 SCT120 M04/M06 A3030 RMK AO2 SLP282 T10441061

KDFW 221053Z 00000KT 10SM CLR M01/M12 A3044 RMK AO2 SLP310 T10061122

KDTW 221053Z 19007KT 10SM SCT200 M12/M16 A3033 RMK AO2 SLP284 T11171156 $

KEWR 221051Z 01014KT 10SM FEW180 SCT250 M12/M19 A3044 RMK AO2 SLP305 T11171194

KFLL 221109Z 34007KT 8SM FEW006 SCT014 21/21 A3005 RMK AO2 T02060206

KIAD 221052Z 35008KT 10SM CLR M09/M17 A3042 RMK AO2 SLP305 T10891167

KIAH 221053Z 02006KT 10SM CLR 00/M06 A3043 RMK AO2 SLP304 T00001056

KJFK 221051Z 36011KT 10SM FEW250 M09/M16 A3043 RMK AO2 SLP303 T10941161

KLAS 221056Z 34012KT 10SM SCT100 09/M07 A3013 RMK AO2 PK WND 35026/0958 SLP198 T00941072 $

KLAX 221053Z 36012KT 10SM CLR 17/M07 A3001 RMK AO2 SLP162 T01671067 $

KLGA 221051Z 01009KT 10SM FEW250 M10/M19 A3043 RMK AO2 SLP304 T11001189

KMCO 221053Z 36010KT 10SM OVC007 14/12 A3012 RMK AO2 SLP196 T01440122

KMDW 221101Z 22013G23KT 10SM -SN BKN065 BKN090 OVC110 M06/M13 A3026 RMK AO2 SNB01 P0000 T10561128

KMEM 221054Z 02007KT 10SM CLR M06/M11 A3046 RMK AO2 SLP319 T10611106 $

KMIA 221114Z VRB04KT 1/2SM R09/P6000FT FG OVC002 21/21 A3005 RMK AO2 T02060206 $

KMSP 221053Z 31016G28KT 8SM -SN OVC031 M07/M13 A3009 RMK AO2 PK WND 26031/0955 SLP207 P0000 T10721128

KORD 221051Z 22017G26KT 10SM -SN OVC060 M07/M12 A3024 RMK AO2 PK WND 21026/1047 SNB50 SLP251 P0000 T10671122

KPDX 221053Z 00000KT 10SM OVC014 07/03 A3054 RMK AO2 SLP342 T00720028

KPHL 221054Z 02007KT 10SM FEW200 SCT250 M09/M18 A3042 RMK AO2 SLP301 T10891183

KPHX 221051Z 00000KT 10SM FEW090 SCT120 SCT170 10/M01 A2986 RMK AO2 SLP102 T01001006 $

KPIT 221051Z 00000KT 10SM CLR M17/M21 A3035 RMK AO2 SLP311 T11721211

KSAN 221051Z 27003KT 10SM FEW110 10/08 A2997 RMK AO2 SLP147 T01000083

KSEA 221114Z 01010KT 1/2SM R16L/P6000FT FG VV001 03/03 A3058 RMK AO2 T00330028

KSFO 221056Z 09008KT 10SM CLR 14/04 A3009 RMK AO2 SLP190 T01440039

KSLC 221054Z 00000KT 10SM FEW240 M05/M07 A3036 RMK AO2 SLP296 T10501067

KSTL 221051Z 20006KT 10SM FEW180 BKN250 M08/M13 A3041 RMK AO2 SLP315 T10781128

KTPA 221113Z 03005KT 10SM BKN028 OVC034 14/11 A3012 RMK AO2 T01440106